Time;durP1;ratioP1;P1;durP2;ratioP2;P2;SDS_P1;SDS_P2;PMS_P1;PMS_P2;Temp;Humidity;BMP_temperature;BMP_pressure;BME280_temperature;BME280_humidity;BME280_pressure;Samples;Min_cycle;Max_cycle;Signal;HPM_P1;HPM_P2
2022/09/16 00:00:09;;;;;;;28.50;20.00;;;;;;;13.38;85.97;97765.80;88833;1274;22619;-72
2022/09/16 00:02:31;;;;;;;33.60;18.50;;;;;;;13.37;86.14;97770.80;88663;1271;99905;-72
2022/09/16 00:04:33;;;;;;;29.10;19.50;;;;;;;13.36;86.05;97767.02;88668;1274;23348;-73
2022/09/16 00:06:34;;;;;;;32.80;19.00;;;;;;;13.35;86.01;97770.43;88702;1271;22589;-71
2022/09/16 00:08:39;;;;;;;34.90;18.90;;;;;;;13.35;86.06;97770.41;88555;1274;100133;-71
2022/09/16 00:10:42;;;;;;;36.30;19.20;;;;;;;13.34;86.16;97770.83;88743;1274;24184;-72
2022/09/16 00:12:44;;;;;;;31.60;18.50;;;;;;;13.34;86.09;97772.23;88736;1271;22859;-70
2022/09/16 00:14:46;;;;;;;27.40;18.80;;;;;;;13.33;86.15;97772.66;88622;1274;99703;-71
2022/09/16 00:16:48;;;;;;;31.30;18.40;;;;;;;13.32;86.05;97777.17;88536;1275;22575;-72
2022/09/16 00:18:54;;;;;;;31.70;16.80;;;;;;;13.32;86.12;97780.35;88641;1273;25977;-71
2022/09/16 00:20:56;;;;;;;30.70;17.00;;;;;;;13.30;86.03;97781.33;88715;1277;98365;-72
2022/09/16 00:22:57;;;;;;;27.80;17.30;;;;;;;13.31;86.23;97780.09;88610;1274;22844;-70
2022/09/16 00:25:00;;;;;;;35.30;16.90;;;;;;;13.30;86.16;97780.69;88767;1271;22571;-72
2022/09/16 00:27:02;;;;;;;30.30;16.20;;;;;;;13.29;85.95;97786.04;88529;1274;99326;-72
2022/09/16 00:29:03;;;;;;;27.50;17.00;;;;;;;13.28;86.17;97788.27;88701;1275;22590;-71
2022/09/16 00:31:05;;;;;;;30.50;17.30;;;;;;;13.28;85.99;97794.94;88756;1271;23094;-70
2022/09/16 00:33:08;;;;;;;32.20;16.30;;;;;;;13.28;86.17;97797.93;88596;1274;99531;-72
2022/09/16 00:35:10;;;;;;;28.50;16.60;;;;;;;13.26;85.90;97795.45;88830;1271;22647;-71
2022/09/16 00:37:11;;;;;;;29.20;16.90;;;;;;;13.25;85.88;97799.95;88517;1277;22829;-73
2022/09/16 00:39:13;;;;;;;28.90;17.10;;;;;;;13.24;85.99;97796.88;88619;1274;98631;-72
2022/09/16 00:41:17;;;;;;;24.10;16.60;;;;;;;13.22;86.10;97796.61;88658;1273;22583;-72
2022/09/16 00:43:19;;;;;;;30.40;16.10;;;;;;;13.22;85.98;97796.83;88850;1274;25258;-72
2022/09/16 00:45:23;;;;;;;25.90;16.40;;;;;;;13.20;86.09;97796.24;88657;1272;100648;-72
2022/09/16 00:47:50;;;;;;;32.20;16.00;;;;;;;13.19;86.01;97796.85;88653;1275;22595;-72
2022/09/16 00:49:55;;;;;;;32.00;16.00;;;;;;;13.17;85.98;97796.50;88806;1271;22597;-72
2022/09/16 00:52:02;;;;;;;23.10;15.40;;;;;;;13.15;85.85;97795.09;88716;1276;100009;-72
2022/09/16 00:54:08;;;;;;;29.00;15.50;;;;;;;13.15;85.93;97791.94;88877;1271;22573;-72
2022/09/16 00:56:13;;;;;;;23.20;15.50;;;;;;;13.12;85.72;97787.35;88928;1271;23355;-72
2022/09/16 00:58:22;;;;;;;37.50;16.90;;;;;;;13.10;86.11;97787.29;88697;1273;98195;-71
2022/09/16 01:00:24;;;;;;;25.10;16.30;;;;;;;13.09;85.92;97788.78;88716;1275;22725;-71
2022/09/16 01:02:27;;;;;;;35.50;17.00;;;;;;;13.07;86.02;97789.84;88599;1275;22567;-72
2022/09/16 01:04:34;;;;;;;26.50;16.70;;;;;;;13.06;85.80;97791.30;88721;1274;99429;-72
2022/09/16 01:06:38;;;;;;;29.80;17.30;;;;;;;13.05;85.88;97793.38;88404;1275;22560;-71
2022/09/16 01:08:42;;;;;;;28.60;16.60;;;;;;;13.03;86.07;97796.48;88564;1273;100720;-72
2022/09/16 01:10:44;;;;;;;34.70;17.20;;;;;;;13.03;85.87;97798.30;88697;1274;26631;-72
2022/09/16 01:12:57;;;;;;;29.40;18.50;;;;;;;13.00;85.86;97799.17;88459;1274;22789;-72
2022/09/16 01:15:01;;;;;;;27.00;18.20;;;;;;;13.00;85.73;97802.39;88539;1275;101143;-72
2022/09/16 01:17:27;;;;;;;28.20;17.20;;;;;;;12.99;86.00;97803.20;88682;1274;27106;-71
2022/09/16 01:19:31;;;;;;;33.00;19.30;;;;;;;12.98;85.73;97806.45;88676;1275;22566;-72
2022/09/16 01:21:43;;;;;;;30.90;19.50;;;;;;;12.96;85.93;97803.40;88590;1275;99496;-72
2022/09/16 01:24:09;;;;;;;43.80;20.60;;;;;;;12.95;85.98;97801.33;88685;1271;24923;-72
2022/09/16 01:27:08;;;;;;;35.40;19.60;;;;;;;12.94;86.10;97804.04;88721;1273;22701;-71
2022/09/16 01:29:28;;;;;;;38.30;20.40;;;;;;;12.93;85.89;97808.37;88287;1281;23352;-71
2022/09/16 01:31:46;;;;;;;33.20;19.90;;;;;;;12.92;86.05;97807.00;88289;1280;26223;-71
2022/09/16 01:34:15;;;;;;;31.80;19.60;;;;;;;12.92;85.91;97805.63;88118;1281;99532;-72
2022/09/16 01:36:28;;;;;;;36.70;20.80;;;;;;;12.92;86.12;97804.09;88293;1282;23214;-70
2022/09/16 01:38:35;;;;;;;35.60;20.30;;;;;;;12.90;85.82;97805.77;88099;1281;22732;-70
2022/09/16 01:40:49;;;;;;;36.10;20.40;;;;;;;12.90;86.05;97804.40;88358;1282;22626;-71
2022/09/16 01:43:20;;;;;;;28.70;18.70;;;;;;;12.90;85.86;97802.83;88183;1282;22668;-71
2022/09/16 01:45:37;;;;;;;;;;;;;;;12.89;85.99;97803.08;88185;1281;99411;-70
2022/09/16 01:47:54;;;;;;;43.10;18.40;;;;;;;12.86;86.06;97804.13;88253;1278;22730;-72
2022/09/16 01:50:10;;;;;;;34.70;19.70;;;;;;;12.86;85.92;97803.29;88290;1281;24239;-72
2022/09/16 01:52:23;;;;;;;31.40;20.40;;;;;;;12.85;85.92;97806.71;88171;1279;99364;-71
2022/09/16 01:54:37;;;;;;;32.10;21.10;;;;;;;12.84;86.04;97805.73;88248;1281;23536;-72
2022/09/16 01:57:17;;;;;;;47.00;20.50;;;;;;;12.83;85.99;97802.78;88179;1281;99605;-72
2022/09/16 01:59:30;;;;;;;29.90;19.00;;;;;;;12.83;86.01;97806.14;87562;1287;23218;-71
2022/09/16 02:01:44;;;;;;;32.40;21.60;;;;;;;12.83;86.05;97806.16;87910;1281;24284;-72
2022/09/16 02:03:51;;;;;;;38.00;20.30;;;;;;;12.83;86.05;97802.51;88280;1284;100256;-71
2022/09/16 02:05:57;;;;;;;27.50;20.20;;;;;;;12.83;86.08;97805.26;88094;1281;24362;-71
2022/09/16 02:08:04;;;;;;;28.30;20.20;;;;;;;12.83;86.01;97806.38;88203;1281;25379;-72
2022/09/16 02:10:13;;;;;;;32.90;19.60;;;;;;;12.82;86.25;97806.58;88285;1281;99538;-71
2022/09/16 02:12:28;;;;;;;40.20;19.60;;;;;;;12.82;86.14;97813.47;88398;1281;26513;-72
2022/09/16 02:14:34;;;;;;;30.10;20.40;;;;;;;12.82;85.97;97808.75;88331;1281;25638;-72
2022/09/16 02:16:40;;;;;;;34.10;20.80;;;;;;;12.80;86.20;97806.75;87948;1281;24261;-72
2022/09/16 02:18:45;;;;;;;34.10;19.90;;;;;;;12.81;86.01;97815.64;88150;1279;23409;-71
2022/09/16 02:20:47;;;;;;;30.00;21.30;;;;;;;12.78;86.19;97809.20;88053;1281;99497;-71
2022/09/16 02:22:58;;;;;;;30.60;20.10;;;;;;;12.79;86.22;97810.69;88137;1280;22599;-72
2022/09/16 02:25:04;;;;;;;39.40;20.70;;;;;;;12.79;86.02;97805.61;88225;1281;24380;-70
2022/09/16 02:27:11;;;;;;;28.50;19.30;;;;;;;12.78;86.12;97808.81;88105;1281;99460;-72
2022/09/16 02:29:18;;;;;;;31.90;20.40;;;;;;;12.77;85.92;97804.61;88004;1281;24795;-72
2022/09/16 02:31:25;;;;;;;33.70;20.80;;;;;;;12.77;85.89;97803.60;87998;1281;23154;-71
2022/09/16 02:33:35;;;;;;;25.70;20.60;;;;;;;12.77;85.85;97808.71;88091;1281;99881;-71
2022/09/16 02:35:38;;;;;;;36.10;22.00;;;;;;;12.76;86.11;97812.48;88022;1277;22729;-71
2022/09/16 02:37:49;;;;;;;34.20;20.90;;;;;;;12.75;85.84;97814.14;88325;1274;24204;-72
2022/09/16 02:39:56;;;;;;;31.40;21.30;;;;;;;12.75;86.02;97813.98;88411;1275;99308;-71
2022/09/16 02:41:59;;;;;;;33.00;20.10;;;;;;;12.74;85.88;97804.14;88724;1275;26727;-71
2022/09/16 02:44:02;;;;;;;31.90;20.80;;;;;;;12.74;85.93;97798.21;88514;1274;23852;-71
2022/09/16 02:46:28;;;;;;;27.20;19.90;;;;;;;12.72;85.90;97815.61;88504;1274;99473;-72
2022/09/16 02:48:36;;;;;;;27.70;19.50;;;;;;;12.70;86.00;97822.96;88622;1274;22759;-71
2022/09/16 02:50:51;;;;;;;27.10;18.90;;;;;;;12.68;85.96;97823.51;88522;1271;98605;-70
2022/09/16 02:53:03;;;;;;;29.60;19.40;;;;;;;12.66;85.93;97820.86;88533;1271;22863;-70
2022/09/16 02:55:04;;;;;;;32.90;19.90;;;;;;;12.64;85.84;97818.71;88553;1272;23792;-70
2022/09/16 02:57:06;;;;;;;31.40;19.40;;;;;;;12.60;85.74;97817.77;88515;1271;99367;-71
2022/09/16 02:59:11;;;;;;;28.50;18.50;;;;;;;12.58;85.75;97819.34;88574;1271;22558;-72
2022/09/16 03:01:13;;;;;;;30.00;19.10;;;;;;;12.54;85.89;97819.59;88638;1271;23367;-72
2022/09/16 03:03:16;;;;;;;35.10;19.20;;;;;;;12.51;85.85;97823.17;88444;1271;99299;-72
2022/09/16 03:05:17;;;;;;;28.60;18.60;;;;;;;12.48;85.86;97825.39;88557;1274;22672;-72
2022/09/16 03:07:19;;;;;;;26.00;19.30;;;;;;;12.45;85.97;97830.84;88621;1271;23288;-71
2022/09/16 03:09:23;;;;;;;29.40;18.50;;;;;;;12.41;86.01;97831.80;88430;1274;99531;-70
2022/09/16 03:11:39;;;;;;;26.70;19.30;;;;;;;12.37;85.87;97833.87;89128;1271;22782;-70
2022/09/16 03:13:41;;;;;;;30.00;18.80;;;;;;;12.33;85.71;97832.27;88566;1274;22613;-72
2022/09/16 03:16:04;;;;;;;30.30;18.30;;;;;;;12.28;85.86;97826.07;88462;1270;99380;-72
2022/09/16 03:18:13;;;;;;;32.90;18.90;;;;;;;12.24;86.03;97829.95;88339;1274;23716;-70
2022/09/16 03:20:24;;;;;;;30.70;17.40;;;;;;;12.19;85.84;97826.42;88564;1271;22697;-70
2022/09/16 03:22:36;;;;;;;33.30;18.90;;;;;;;12.16;85.78;97822.98;88522;1271;99294;-71
2022/09/16 03:24:56;;;;;;;30.90;16.40;;;;;;;12.12;86.11;97821.29;88811;1271;23808;-72
2022/09/16 03:27:11;;;;;;;27.30;16.60;;;;;;;12.09;85.96;97829.39;88448;1274;100086;-71
2022/09/16 03:29:22;;;;;;;33.70;17.50;;;;;;;12.06;85.87;97829.30;88396;1274;22828;-70
2022/09/16 03:31:37;;;;;;;32.40;17.20;;;;;;;12.02;85.74;97827.09;88553;1272;22650;-72
2022/09/16 03:33:50;;;;;;;35.00;17.10;;;;;;;11.98;85.74;97829.52;88511;1271;99469;-72
2022/09/16 03:35:57;;;;;;;31.70;17.80;;;;;;;11.93;85.91;97824.40;88566;1271;24285;-71
2022/09/16 03:38:01;;;;;;;28.80;16.40;;;;;;;11.90;85.83;97829.20;88513;1274;22775;-69
2022/09/16 03:40:14;;;;;;;26.60;17.10;;;;;;;11.86;86.00;97825.94;89424;1271;98247;-68
2022/09/16 03:42:16;;;;;;;29.80;17.60;;;;;;;11.83;86.07;97823.90;88523;1274;27838;-72
2022/09/16 03:44:18;;;;;;;27.80;17.80;;;;;;;11.80;85.97;97820.91;88511;1274;23007;-72
2022/09/16 03:46:19;;;;;;;42.00;18.40;;;;;;;11.77;86.07;97824.84;88569;1271;99708;-70
2022/09/16 03:48:21;;;;;;;36.20;20.20;;;;;;;11.73;86.08;97823.50;88582;1275;22747;-72
2022/09/16 03:50:22;;;;;;;30.70;18.00;;;;;;;11.70;86.06;97822.99;88634;1272;24221;-69
2022/09/16 03:52:24;;;;;;;41.50;20.20;;;;;;;11.68;86.08;97821.08;88714;1270;99318;-70
2022/09/16 03:54:26;;;;;;;41.50;20.60;;;;;;;11.65;86.08;97818.96;88488;1272;22795;-70
2022/09/16 03:56:28;;;;;;;33.10;18.50;;;;;;;11.63;86.06;97820.36;88454;1274;22631;-72
2022/09/16 03:58:30;;;;;;;33.80;19.10;;;;;;;11.61;86.22;97821.42;88353;1274;99121;-70
2022/09/16 04:00:32;;;;;;;39.70;21.00;;;;;;;11.59;86.16;97825.94;88459;1274;23762;-72
2022/09/16 04:02:34;;;;;;;29.20;19.70;;;;;;;11.57;86.13;97822.02;88352;1274;100447;-71
2022/09/16 04:04:36;;;;;;;31.00;20.40;;;;;;;11.56;86.21;97825.28;88526;1271;22556;-72
2022/09/16 04:06:38;;;;;;;41.90;19.80;;;;;;;11.53;86.24;97826.36;88462;1274;23163;-72
2022/09/16 04:08:40;;;;;;;34.00;21.50;;;;;;;11.50;86.17;97828.33;88493;1273;99647;-70
2022/09/16 04:11:01;;;;;;;39.00;20.30;;;;;;;11.47;86.21;97826.39;88427;1274;22618;-71
2022/09/16 04:13:03;;;;;;;32.60;20.60;;;;;;;11.45;86.29;97825.00;88551;1271;22586;-71
2022/09/16 04:15:05;;;;;;;33.30;20.10;;;;;;;11.42;86.29;97829.06;88484;1273;99504;-72
2022/09/16 04:17:07;;;;;;;52.60;20.50;;;;;;;11.39;86.09;97831.35;88353;1273;26515;-71
2022/09/16 04:19:12;;;;;;;31.80;18.90;;;;;;;11.38;86.21;97836.55;88429;1274;22772;-70
2022/09/16 04:21:13;;;;;;;40.60;21.20;;;;;;;11.36;86.23;97841.77;88587;1271;98344;-72
2022/09/16 04:23:15;;;;;;;37.60;20.80;;;;;;;11.34;86.13;97847.70;88446;1273;22654;-71
2022/09/16 04:25:16;;;;;;;39.30;21.80;;;;;;;11.32;86.26;97848.88;88487;1273;22668;-71
2022/09/16 04:27:18;;;;;;;34.40;20.80;;;;;;;11.32;86.26;97851.57;88375;1275;99334;-70
2022/09/16 04:29:20;;;;;;;31.70;21.10;;;;;;;11.30;86.32;97851.31;88532;1271;23964;-70
2022/09/16 04:31:21;;;;;;;38.00;20.60;;;;;;;11.29;86.20;97857.19;88355;1273;24234;-72
2022/09/16 04:33:28;;;;;;;42.40;22.20;;;;;;;11.27;86.28;97860.48;88206;1274;101439;-71
2022/09/16 04:35:29;;;;;;;38.20;21.00;;;;;;;11.26;86.29;97860.21;88502;1274;25288;-73
2022/09/16 04:37:31;;;;;;;34.80;19.50;;;;;;;11.25;86.36;97855.53;88522;1271;22590;-71
2022/09/16 04:39:33;;;;;;;36.50;21.10;;;;;;;11.23;86.30;97855.48;88420;1271;98407;-72
2022/09/16 04:41:34;;;;;;;33.50;19.90;;;;;;;11.23;86.33;97854.46;88415;1272;24279;-72
2022/09/16 04:43:36;;;;;;;32.20;20.40;;;;;;;11.23;86.47;97850.44;88578;1271;22672;-72
2022/09/16 04:45:38;;;;;;;34.50;20.40;;;;;;;11.22;86.34;97852.60;88403;1273;99334;-71
2022/09/16 04:47:39;;;;;;;56.60;20.30;;;;;;;11.20;86.27;97852.01;88436;1273;22677;-71
2022/09/16 04:49:41;;;;;;;32.40;20.50;;;;;;;11.20;86.37;97854.33;88521;1272;22566;-71
2022/09/16 04:51:43;;;;;;;31.40;19.10;;;;;;;11.19;86.39;97854.90;88431;1271;99322;-70
2022/09/16 04:53:45;;;;;;;39.40;20.40;;;;;;;11.19;86.42;97854.35;88411;1273;24124;-72
2022/09/16 04:55:48;;;;;;;33.20;18.60;;;;;;;11.19;86.45;97854.02;88281;1274;22616;-72
2022/09/16 04:57:50;;;;;;;29.90;19.20;;;;;;;11.20;86.41;97858.55;88478;1271;99365;-70
2022/09/16 04:59:51;;;;;;;30.30;19.50;;;;;;;11.20;86.47;97855.36;88609;1271;22739;-73
2022/09/16 05:01:53;;;;;;;36.80;18.60;;;;;;;11.21;86.45;97858.65;88475;1273;25468;-72
2022/09/16 05:03:58;;;;;;;28.50;18.00;;;;;;;11.21;86.45;97863.04;88522;1271;99321;-71
2022/09/16 05:06:04;;;;;;;22.90;16.00;;;;;;;11.20;86.47;97863.42;88876;1274;25656;-72
2022/09/16 05:08:06;;;;;;;32.10;16.90;;;;;;;11.21;86.33;97867.07;88668;1271;22567;-72
2022/09/16 05:10:08;;;;;;;31.40;16.80;;;;;;;11.21;86.49;97864.60;88593;1271;99245;-73
2022/09/16 05:12:10;;;;;;;33.90;18.40;;;;;;;11.21;86.53;97860.57;88446;1273;22780;-73
2022/09/16 05:14:17;;;;;;;32.40;18.10;;;;;;;11.24;86.55;97860.02;88514;1272;24246;-71
2022/09/16 05:16:21;;;;;;;25.80;16.60;;;;;;;11.26;86.68;97857.41;88462;1274;99282;-72
2022/09/16 05:18:23;;;;;;;25.70;16.30;;;;;;;11.29;86.70;97857.05;88720;1273;22587;-71
2022/09/16 05:20:25;;;;;;;40.10;16.20;;;;;;;11.32;86.52;97860.86;88485;1273;24221;-73
2022/09/16 05:22:26;;;;;;;42.00;18.00;;;;;;;11.34;86.58;97857.91;88197;1273;99394;-72
2022/09/16 05:24:28;;;;;;;32.20;17.70;;;;;;;11.38;86.69;97864.67;88466;1273;22881;-72
2022/09/16 05:26:31;;;;;;;35.10;17.00;;;;;;;11.39;86.53;97871.77;88278;1276;22671;-72
2022/09/16 05:28:34;;;;;;;30.20;17.10;;;;;;;11.44;86.60;97871.10;88409;1273;22938;-72
2022/09/16 05:30:35;;;;;;;34.70;18.00;;;;;;;11.49;86.66;97869.57;88544;1273;26650;-72
2022/09/16 05:32:37;;;;;;;31.90;18.60;;;;;;;11.55;86.79;97863.00;88433;1273;99709;-72
2022/09/16 05:34:39;;;;;;;31.50;17.60;;;;;;;11.61;86.78;97860.27;88393;1276;22562;-72
2022/09/16 05:36:42;;;;;;;42.10;17.80;;;;;;;11.67;86.73;97859.51;88486;1274;22745;-72
2022/09/16 05:38:44;;;;;;;29.20;17.50;;;;;;;11.74;86.82;97867.23;88573;1273;100228;-72
2022/09/16 05:40:46;;;;;;;34.50;18.30;;;;;;;11.81;86.93;97869.80;88451;1273;23175;-72
2022/09/16 05:42:48;;;;;;;24.60;18.60;;;;;;;11.87;86.86;97870.70;88418;1273;23646;-73
2022/09/16 05:44:50;;;;;;;25.90;19.90;;;;;;;11.95;86.88;97869.48;88458;1273;101401;-72
2022/09/16 05:46:52;;;;;;;35.80;20.60;;;;;;;12.02;86.77;97869.92;88538;1272;23551;-72
2022/09/16 05:48:55;;;;;;;28.90;19.30;;;;;;;12.07;86.73;97872.00;88489;1273;22567;-72
2022/09/16 05:51:00;;;;;;;35.00;19.50;;;;;;;12.13;86.91;97868.57;88472;1272;100073;-72
2022/09/16 05:53:01;;;;;;;33.40;18.70;;;;;;;12.19;86.81;97865.48;88470;1273;24416;-70
2022/09/16 05:55:03;;;;;;;37.30;19.00;;;;;;;12.24;86.71;97869.17;88409;1274;22571;-71
2022/09/16 05:57:05;;;;;;;33.50;17.80;;;;;;;12.29;86.71;97871.31;88476;1273;99573;-72
2022/09/16 05:59:10;;;;;;;32.60;17.60;;;;;;;12.33;86.78;97871.01;88431;1274;22897;-73
2022/09/16 06:01:15;;;;;;;27.80;17.90;;;;;;;12.38;86.61;97865.14;88689;1273;22596;-72
2022/09/16 06:03:17;;;;;;;27.90;18.10;;;;;;;12.44;86.70;97859.25;88341;1274;99459;-72
2022/09/16 06:05:19;;;;;;;25.60;17.70;;;;;;;12.50;86.64;97855.88;88445;1273;22695;-72
2022/09/16 06:07:20;;;;;;;30.60;17.80;;;;;;;12.53;86.61;97855.60;88474;1275;22664;-72
2022/09/16 06:09:23;;;;;;;29.50;18.30;;;;;;;12.58;86.68;97855.07;88338;1274;99381;-73
2022/09/16 06:11:27;;;;;;;28.00;17.80;;;;;;;12.62;86.75;97854.25;88706;1273;23481;-73
2022/09/16 06:13:29;;;;;;;29.20;16.90;;;;;;;12.65;86.40;97856.17;88479;1273;22739;-72
2022/09/16 06:15:31;;;;;;;32.00;17.20;;;;;;;12.68;86.77;97855.38;88309;1273;100342;-72
2022/09/16 06:17:33;;;;;;;34.10;17.50;;;;;;;12.72;86.53;97852.63;88532;1271;22635;-72
2022/09/16 06:19:35;;;;;;;23.20;16.20;;;;;;;12.76;86.61;97852.11;88450;1273;25880;-73
2022/09/16 06:21:37;;;;;;;24.60;14.90;;;;;;;12.82;86.63;97849.77;88264;1274;100009;-72
2022/09/16 06:23:39;;;;;;;23.50;14.50;;;;;;;12.87;86.47;97851.65;88226;1274;22579;-72
2022/09/16 06:25:42;;;;;;;20.10;13.20;;;;;;;12.91;86.77;97849.60;88440;1273;23174;-71
2022/09/16 06:27:44;;;;;;;22.30;13.50;;;;;;;12.95;86.39;97847.74;88247;1273;99475;-72
2022/09/16 06:29:45;;;;;;;19.80;12.60;;;;;;;12.98;86.46;97845.20;88216;1275;25319;-72
2022/09/16 06:31:47;;;;;;;18.70;12.20;;;;;;;13.00;86.47;97839.04;88563;1273;22713;-73
2022/09/16 06:33:49;;;;;;;16.20;11.70;;;;;;;13.03;86.23;97842.72;88404;1273;100076;-72
2022/09/16 06:35:52;;;;;;;22.30;11.50;;;;;;;13.07;86.40;97846.48;88501;1273;23065;-72
2022/09/16 06:37:53;;;;;;;18.20;12.40;;;;;;;13.11;86.27;97852.46;88378;1273;23246;-71
2022/09/16 06:39:55;;;;;;;23.00;11.60;;;;;;;13.18;86.12;97855.52;88371;1271;99289;-73
2022/09/16 06:41:57;;;;;;;19.40;10.90;;;;;;;13.25;86.22;97852.85;88518;1271;22637;-72
2022/09/16 06:43:59;;;;;;;19.90;12.20;;;;;;;13.32;86.43;97853.91;88532;1271;22576;-70
2022/09/16 06:46:04;;;;;;;21.20;12.10;;;;;;;13.38;86.14;97849.41;88239;1274;99958;-71
2022/09/16 06:48:06;;;;;;;20.50;12.30;;;;;;;13.45;86.15;97849.72;88432;1274;22641;-71
2022/09/16 06:50:08;;;;;;;23.90;11.10;;;;;;;13.52;85.95;97851.34;88325;1274;22651;-73
2022/09/16 06:52:10;;;;;;;26.20;10.70;;;;;;;13.54;85.58;97848.15;88404;1273;100724;-72
2022/09/16 06:54:12;;;;;;;18.00;10.70;;;;;;;13.56;85.69;97846.42;88478;1274;24236;-72
2022/09/16 06:56:18;;;;;;;16.00;10.10;;;;;;;13.57;85.62;97840.54;88333;1274;22554;-72
2022/09/16 06:58:20;;;;;;;16.10;11.20;;;;;;;13.58;85.26;97842.40;88319;1274;99797;-72
2022/09/16 07:00:21;;;;;;;15.60;10.70;;;;;;;13.59;85.52;97845.85;88512;1271;22705;-72
2022/09/16 07:02:23;;;;;;;15.40;9.90;;;;;;;13.60;85.44;97849.98;88460;1274;25988;-72
2022/09/16 07:04:25;;;;;;;21.00;10.30;;;;;;;13.63;85.34;97854.36;88517;1274;98977;-72
2022/09/16 07:06:29;;;;;;;14.70;10.60;;;;;;;13.67;85.55;97853.70;88530;1273;22556;-72
2022/09/16 07:08:34;;;;;;;17.90;10.40;;;;;;;13.71;85.43;97851.90;88422;1272;100041;-72
2022/09/16 07:10:35;;;;;;;24.50;8.40;;;;;;;13.75;85.53;97850.37;88558;1273;23447;-72
2022/09/16 07:12:37;;;;;;;9.80;7.50;;;;;;;13.80;85.39;97851.78;88549;1273;22620;-73
2022/09/16 07:14:39;;;;;;;13.00;8.00;;;;;;;13.85;85.28;97852.80;88375;1274;99246;-72
2022/09/16 07:16:41;;;;;;;16.70;9.90;;;;;;;13.89;85.44;97850.20;88350;1274;23266;-70
2022/09/16 07:18:43;;;;;;;13.20;7.50;;;;;;;13.94;85.25;97853.61;88391;1274;27710;-71
2022/09/16 07:20:45;;;;;;;15.20;7.60;;;;;;;14.00;85.34;97856.68;88461;1273;100936;-72
2022/09/16 07:22:49;;;;;;;25.20;7.70;;;;;;;14.06;85.44;97856.42;88408;1274;22769;-72
2022/09/16 07:24:51;;;;;;;10.30;7.10;;;;;;;14.11;85.17;97854.29;88580;1273;23675;-72
2022/09/16 07:26:52;;;;;;;14.60;6.50;;;;;;;14.16;85.04;97852.98;88399;1274;99755;-71
2022/09/16 07:28:57;;;;;;;10.80;6.90;;;;;;;14.20;84.97;97855.98;88391;1275;22563;-72
2022/09/16 07:31:03;;;;;;;15.40;6.80;;;;;;;14.24;85.00;97856.54;88381;1274;23750;-72
2022/09/16 07:33:05;;;;;;;7.50;6.50;;;;;;;14.27;84.58;97854.70;88506;1273;99274;-71
2022/09/16 07:35:07;;;;;;;11.70;6.70;;;;;;;14.29;84.70;97851.55;88339;1274;22546;-72
2022/09/16 07:37:09;;;;;;;8.40;5.90;;;;;;;14.30;84.43;97849.91;88570;1271;22598;-70
2022/09/16 07:39:13;;;;;;;6.50;5.80;;;;;;;14.32;84.52;97845.14;88306;1274;98991;-71
2022/09/16 07:41:24;;;;;;;10.80;6.10;;;;;;;14.36;84.67;97846.96;88504;1274;22570;-71
2022/09/16 07:43:26;;;;;;;8.90;5.70;;;;;;;14.41;84.44;97842.79;88599;1276;22634;-73
2022/09/16 07:45:28;;;;;;;7.20;5.60;;;;;;;14.46;84.17;97842.53;88764;1274;98933;-70
2022/09/16 07:47:30;;;;;;;7.00;5.90;;;;;;;14.51;84.26;97846.45;88740;1274;23194;-73
2022/09/16 07:49:32;;;;;;;8.00;5.80;;;;;;;14.53;84.01;97855.34;88895;1274;22714;-72
2022/09/16 07:51:34;;;;;;;8.90;6.40;;;;;;;14.54;84.01;97853.39;88829;1273;99379;-73
2022/09/16 07:53:37;;;;;;;8.20;6.30;;;;;;;14.58;83.91;97855.55;88718;1274;22654;-74
2022/09/16 07:55:39;;;;;;;8.70;5.90;;;;;;;14.62;84.09;97853.13;88883;1273;22629;-73
2022/09/16 07:57:40;;;;;;;8.90;5.90;;;;;;;14.68;83.93;97854.06;88552;1275;99532;-71
2022/09/16 07:59:42;;;;;;;12.70;5.80;;;;;;;14.75;83.97;97849.54;88647;1273;25478;-72
2022/09/16 08:01:48;;;;;;;23.00;5.70;;;;;;;14.86;83.93;97851.88;88523;1274;22582;-71
2022/09/16 08:03:50;;;;;;;7.70;5.30;;;;;;;14.94;83.88;97855.98;88414;1273;99952;-72
2022/09/16 08:05:57;;;;;;;8.20;5.10;;;;;;;14.98;83.72;97856.48;88453;1273;22560;-73
2022/09/16 08:07:59;;;;;;;10.80;5.60;;;;;;;15.02;83.42;97859.02;88549;1273;25520;-72
2022/09/16 08:10:01;;;;;;;10.00;5.90;;;;;;;15.04;83.28;97856.71;88639;1271;99281;-72
2022/09/16 08:12:04;;;;;;;12.70;5.80;;;;;;;15.05;83.03;97858.94;88534;1273;25543;-71
2022/09/16 08:14:06;;;;;;;8.50;5.50;;;;;;;15.06;82.98;97866.14;88545;1273;22572;-73
2022/09/16 08:16:11;;;;;;;9.90;5.30;;;;;;;15.05;83.00;97861.45;88550;1273;99034;-71
2022/09/16 08:18:13;;;;;;;10.50;5.30;;;;;;;15.04;82.82;97856.16;88573;1273;24233;-72
2022/09/16 08:20:15;;;;;;;10.00;5.80;;;;;;;15.06;83.04;97861.50;88551;1271;25423;-72
2022/09/16 08:22:17;;;;;;;10.00;5.40;;;;;;;15.08;83.11;97864.52;88376;1274;99981;-73
2022/09/16 08:24:18;;;;;;;6.10;5.30;;;;;;;15.09;83.00;97865.33;88663;1273;22741;-72
2022/09/16 08:26:21;;;;;;;6.10;5.30;;;;;;;15.08;82.82;97867.34;88383;1274;23430;-70
2022/09/16 08:28:22;;;;;;;7.40;5.10;;;;;;;15.04;82.66;97867.51;88368;1273;99499;-72
2022/09/16 08:30:24;;;;;;;21.20;6.10;;;;;;;15.00;82.44;97868.05;88514;1273;22557;-72
2022/09/16 08:32:25;;;;;;;10.00;5.30;;;;;;;14.96;82.57;97866.08;88333;1274;22762;-72
2022/09/16 08:34:27;;;;;;;5.90;5.40;;;;;;;14.92;82.54;97869.58;88381;1273;99142;-72
2022/09/16 08:36:32;;;;;;;9.60;5.10;;;;;;;14.89;82.51;97872.88;88438;1274;22694;-71
2022/09/16 08:38:34;;;;;;;10.80;5.00;;;;;;;14.84;82.39;97873.79;88440;1273;99298;-73
2022/09/16 08:40:36;;;;;;;17.30;5.40;;;;;;;14.79;82.32;97872.80;88486;1273;22778;-72
2022/09/16 08:42:52;;;;;;;8.40;5.00;;;;;;;14.73;82.25;97871.67;88424;1274;22557;-73
2022/09/16 08:45:09;;;;;;;10.70;4.70;;;;;;;14.68;82.14;97872.85;88396;1273;100486;-72
2022/09/16 08:47:37;;;;;;;6.60;4.60;;;;;;;14.60;81.93;97874.98;88409;1273;23190;-72
2022/09/16 08:49:45;;;;;;;11.00;5.10;;;;;;;14.55;82.24;97877.01;88518;1271;22571;-71
2022/09/16 08:51:47;;;;;;;8.90;5.00;;;;;;;14.53;82.24;97880.57;88401;1274;99548;-72
2022/09/16 08:53:56;;;;;;;5.90;4.70;;;;;;;14.51;82.21;97875.41;88458;1275;23188;-72
2022/09/16 08:56:03;;;;;;;8.10;5.30;;;;;;;14.51;82.25;97874.73;88537;1273;25608;-72
2022/09/16 08:58:23;;;;;;;10.70;5.20;;;;;;;14.50;82.27;97879.38;88296;1274;99974;-72
2022/09/16 09:00:25;;;;;;;7.90;4.80;;;;;;;14.48;82.23;97874.73;88407;1274;24291;-73
2022/09/16 09:02:41;;;;;;;10.10;4.80;;;;;;;14.45;81.94;97873.91;88487;1274;22589;-71
2022/09/16 09:04:42;;;;;;;7.40;4.80;;;;;;;14.43;82.14;97872.64;88325;1274;24537;-72
2022/09/16 09:06:55;;;;;;;10.10;5.30;;;;;;;14.43;81.92;97874.11;88477;1273;22712;-72
2022/09/16 09:09:15;;;;;;;11.30;5.10;;;;;;;14.43;82.07;97877.13;88386;1271;99245;-73
2022/09/16 09:11:23;;;;;;;11.40;5.40;;;;;;;14.47;82.11;97878.56;88512;1273;22640;-73
2022/09/16 09:13:37;;;;;;;12.80;5.00;;;;;;;14.58;82.36;97872.33;88611;1273;22613;-73
2022/09/16 09:15:52;;;;;;;11.30;5.10;;;;;;;14.71;82.24;97870.06;88510;1273;99809;-72
2022/09/16 09:18:33;;;;;;;9.00;5.00;;;;;;;14.84;82.27;97869.17;88549;1273;22897;-72
2022/09/16 09:20:44;;;;;;;7.00;4.40;;;;;;;14.98;82.16;97861.83;88510;1272;99486;-73
2022/09/16 09:22:52;;;;;;;9.40;5.00;;;;;;;15.15;81.75;97857.91;88751;1272;23206;-72
2022/09/16 09:25:18;;;;;;;13.10;4.60;;;;;;;15.28;81.65;97862.17;88714;1273;22979;-73
2022/09/16 09:27:37;;;;;;;6.00;4.20;;;;;;;15.44;81.43;97865.35;88764;1274;99395;-73
2022/09/16 09:29:38;;;;;;;6.80;4.70;;;;;;;15.58;81.34;97868.11;88798;1274;25966;-72
2022/09/16 09:32:12;;;;;;;7.10;4.30;;;;;;;15.75;81.60;97867.85;88461;1273;22589;-71
2022/09/16 09:34:51;;;;;;;7.60;4.80;;;;;;;15.91;81.42;97865.23;88491;1273;98853;-72
2022/09/16 09:36:58;;;;;;;5.60;4.40;;;;;;;16.07;80.73;97867.52;88465;1273;22873;-73
2022/09/16 09:39:12;;;;;;;6.90;4.30;;;;;;;16.09;80.55;97866.66;88530;1273;98911;-72
2022/09/16 09:41:19;;;;;;;10.30;4.20;;;;;;;16.09;80.37;97869.46;88499;1273;22631;-72